Great Falls, Virginia
Current Conditions -  °F | °C
As of 11:21 AM on Monday 24 Nov 2014 (Local Time) from KIAD Reporting Station
Overcast Overcast  
Wind Chill: 63°   Ceiling: 3000
Heat Index: 63°   Visibility: 10mi
Dew Point: 55°   Wind: 15mph
Humidity: 77%   Direction: 200°SSW
Pressure: 29.67"   Gusts: 32mph
Location:  39°N, 77.29°W
Report Text: KIAD 241621Z 20013G28KT 10SM OVC030 17/13 A2967 RMK AO2 PK WND 19028/1612
Loading
Personal Weather Stations






























Interactive Weather Map New forecast layout! Learn more

10-Day Weather Forecast

Advertisements
Track Severe Weather on mobile